Skip Navigation Links
NOAA logo - Click to go to the NOAA homepage
NOAA's National Weather Service
Alaska Aviation Weather Unit
  NWS logo - Click to go to the NWS homepage
Left Navbar Graphic     23 AKDT = 07 GMT

   
NOAA is celebrating 200 years of science, service, and stewardship. Visit the NOAA 200th celebration Web site to learn more.
USA.gov is the U.S. Government's official Web portal to all Federal, state and local government Web resources and services.
Facebook
NWS on Facebook

AAWU Home :: Display TAF Add Bookmark
METAR PAIK 240101Z AUTO 34008KT 10SM CLR 05/M12 A2982 RMK AO2 SLP140
     T00501117=

METAR PAIK 240201Z AUTO 35006KT 10SM CLR 05/M12 A2981 RMK AO2 SLP137
     T00501122=

METAR PAIK 240301Z AUTO 36006KT 10SM CLR 06/M12 A2979 RMK AO2 SLP132
     T00561117 56016=

METAR PAIK 240401Z AUTO 04006KT 10SM CLR 06/M12 A2978 RMK AO2 SLP127
     T00561117=

METAR PAIK 240501Z AUTO 03005KT 10SM CLR 05/M11 A2978 RMK AO2 SLP125
     T00501106=

METAR PAIK 240601Z AUTO 04005KT 10SM CLR 03/M11 A2977 RMK AO2 SLP124
     T00331111 10056 20033 56010=

METAR PAIK 240701Z AUTO 04005KT 10SM CLR 02/M11 A2977 RMK AO2 SLP125
     T00221111 FZRANO=


NOAA's National Weather Service
Alaska Aviation Weather Unit
6930 Sand Lake Road
Anchorage, AK 99502-1845
Disclaimer
Credits
Glossary
Privacy Policy
About Us
Career Opportunities
Contact AAWU Internet Services Site last modified: April, 17th 2012